createdAt,value
2019-03-05T00:00:51.158Z,98592.48
2019-03-05T00:03:23.418Z,98586.41
2019-03-05T00:05:55.827Z,98592.92
2019-03-05T00:08:28.166Z,98607.27
2019-03-05T00:11:00.538Z,98595.08
2019-03-05T00:13:33.458Z,98589.01
2019-03-05T00:16:05.891Z,98600.30
2019-03-05T00:18:38.273Z,98600.30
2019-03-05T00:21:10.643Z,98598.57
2019-03-05T00:23:49.057Z,98602.05
2019-03-05T00:26:35.050Z,98603.78
2019-03-05T00:29:34.360Z,98599.02
2019-03-05T00:32:06.923Z,98614.19
2019-03-05T00:34:49.293Z,98614.22
2019-03-05T00:37:35.012Z,98626.36
2019-03-05T00:40:18.328Z,98620.30
2019-03-05T00:43:07.021Z,98629.42
2019-03-05T00:45:50.021Z,98633.32
2019-03-05T00:48:55.874Z,98631.55
2019-03-05T00:51:53.492Z,98635.02
2019-03-05T00:54:48.446Z,98643.25
2019-03-05T00:57:40.371Z,98641.48
2019-03-05T01:00:27.096Z,98644.95
2019-03-05T01:03:09.695Z,98664.91
2019-03-05T01:05:46.776Z,98655.75
2019-03-05T01:08:19.791Z,98654.87
2019-03-05T01:10:52.334Z,98668.29
2019-03-05T01:13:24.813Z,98660.88
2019-03-05T01:15:57.804Z,98649.59
2019-03-05T01:18:30.279Z,98675.61
2019-03-05T01:21:02.645Z,98668.22
2019-03-05T01:23:35.099Z,98666.91
2019-03-05T01:26:08.301Z,98673.78
2019-03-05T01:28:40.586Z,98685.93
2019-03-05T01:31:20.531Z,98676.31
2019-03-05T01:33:54.544Z,98674.62
2019-03-05T01:36:28.552Z,98678.03
2019-03-05T01:39:03.181Z,98684.98
2019-03-05T01:41:36.260Z,98683.21
2019-03-05T01:44:11.210Z,98669.23
2019-03-05T01:46:43.568Z,98677.16
2019-03-05T01:49:15.828Z,98681.95
2019-03-05T01:51:48.212Z,98692.77
2019-03-05T01:54:20.586Z,98681.53
2019-03-05T01:56:52.960Z,98695.41
2019-03-05T01:59:25.337Z,98693.25
2019-03-05T02:01:57.320Z,98709.30
2019-03-05T02:04:29.661Z,98698.41
2019-03-05T02:07:02.037Z,98712.34
2019-03-05T02:09:34.405Z,98704.48
2019-03-05T02:12:06.777Z,98709.23
2019-03-05T02:14:40.178Z,98714.39
2019-03-05T02:17:12.544Z,98703.92
2019-03-05T02:19:47.552Z,98695.70
2019-03-05T02:22:24.661Z,98708.20
2019-03-05T02:25:14.757Z,98704.33
2019-03-05T02:28:15.154Z,98709.91
2019-03-05T02:31:16.120Z,98719.83
2019-03-05T02:34:13.891Z,98716.44
2019-03-05T02:37:11.818Z,98718.18
2019-03-05T02:40:00.749Z,98720.81
2019-03-05T02:42:47.862Z,98727.29
2019-03-05T02:45:33.625Z,98727.34
2019-03-05T02:48:25.352Z,98710.85
2019-03-05T02:51:05.635Z,98723.50
2019-03-05T02:54:21.707Z,98727.01
2019-03-05T02:57:10.893Z,98734.79
2019-03-05T02:59:43.247Z,98736.94
2019-03-05T03:02:30.169Z,98737.88
2019-03-05T03:05:04.062Z,98742.14
2019-03-05T03:07:36.430Z,98735.27
2019-03-05T03:10:19.462Z,98732.70
2019-03-05T03:12:51.833Z,98738.35
2019-03-05T03:15:24.199Z,98737.50
2019-03-05T03:17:56.534Z,98740.11
2019-03-05T03:20:29.048Z,98745.31
2019-03-05T03:23:01.044Z,98742.25
2019-03-05T03:25:33.378Z,98750.97
2019-03-05T03:28:05.346Z,98755.77
2019-03-05T03:30:37.272Z,98749.69
2019-03-05T03:33:09.742Z,98741.42
2019-03-05T03:35:42.015Z,98747.97
2019-03-05T03:38:14.531Z,98751.84
2019-03-05T03:40:48.230Z,98753.99
2019-03-05T03:43:21.219Z,98750.55
2019-03-05T03:45:53.480Z,98757.00
2019-03-05T03:48:26.131Z,98758.70
2019-03-05T03:50:58.432Z,98766.50
2019-03-05T03:53:31.008Z,98769.11
2019-03-05T03:56:03.281Z,98808.48
2019-03-05T03:58:35.654Z,98759.45
2019-03-05T04:01:08.014Z,98762.00
2019-03-05T04:03:40.396Z,98766.78
2019-03-05T04:06:12.304Z,98765.00
2019-03-05T04:08:44.727Z,98761.42
2019-03-05T04:11:17.098Z,98767.47
2019-03-05T04:13:49.584Z,98775.70
2019-03-05T04:16:21.886Z,98775.27
2019-03-05T04:18:54.904Z,98785.19
2019-03-05T04:21:27.300Z,98792.15
2019-03-05T04:23:59.510Z,98790.39
2019-03-05T04:26:31.426Z,98785.16
2019-03-05T04:29:03.806Z,98797.73
2019-03-05T04:31:35.708Z,98783.39
2019-03-05T04:34:08.014Z,98776.50
2019-03-05T04:36:40.407Z,98779.95
2019-03-05T04:39:13.756Z,98781.64
2019-03-05T04:41:46.082Z,98783.47
2019-03-05T04:44:20.259Z,98781.25
2019-03-05T04:46:53.376Z,98786.49
2019-03-05T04:49:30.251Z,98769.52
2019-03-05T04:52:04.536Z,98767.86
2019-03-05T04:54:36.843Z,98770.42
2019-03-05T04:57:09.213Z,98775.63
2019-03-05T04:59:41.587Z,98782.98
2019-03-05T05:02:13.959Z,98777.38
2019-03-05T05:04:46.334Z,98784.77
2019-03-05T05:07:19.626Z,98777.42
2019-03-05T05:09:51.994Z,98775.27
2019-03-05T05:12:24.264Z,98773.58
2019-03-05T05:14:56.797Z,98776.67
2019-03-05T05:17:29.318Z,98781.81
2019-03-05T05:20:01.306Z,98786.20
2019-03-05T05:22:33.755Z,98782.75
2019-03-05T05:25:07.365Z,98771.92
2019-03-05T05:27:39.881Z,98780.25
2019-03-05T05:30:36.264Z,98778.97
2019-03-05T05:33:09.671Z,98782.06
2019-03-05T05:35:42.033Z,98780.42
2019-03-05T05:38:13.943Z,98784.39
2019-03-05T05:40:48.412Z,98779.20
2019-03-05T05:43:25.188Z,98777.53
2019-03-05T05:45:58.276Z,98791.91
2019-03-05T05:48:30.655Z,98802.35
2019-03-05T05:51:03.022Z,98798.05
2019-03-05T05:53:35.396Z,98800.22
2019-03-05T05:56:07.695Z,98818.05
2019-03-05T05:58:40.239Z,98809.39
2019-03-05T06:01:12.811Z,98807.66
2019-03-05T06:03:45.086Z,98814.63
2019-03-05T06:06:17.460Z,98808.56
2019-03-05T06:08:49.719Z,98809.44
2019-03-05T06:11:22.099Z,98814.19
2019-03-05T06:13:55.393Z,98813.32
2019-03-05T06:16:27.767Z,98812.89
2019-03-05T06:19:00.242Z,98813.32
2019-03-05T06:21:32.614Z,98821.59
2019-03-05T06:24:04.985Z,98820.28
2019-03-05T06:26:37.360Z,98814.65
2019-03-05T06:29:09.926Z,98829.43
2019-03-05T06:31:42.306Z,98832.06
2019-03-05T06:34:14.568Z,98827.32
2019-03-05T06:36:55.744Z,98817.34
2019-03-05T06:39:28.015Z,98813.89
2019-03-05T06:42:00.499Z,98823.03
2019-03-05T06:44:34.000Z,98821.75
2019-03-05T06:47:06.568Z,98824.38
2019-03-05T06:49:38.832Z,98813.95
2019-03-05T06:52:11.919Z,98809.61
2019-03-05T06:54:44.711Z,98820.94
2019-03-05T06:57:17.083Z,98814.86
2019-03-05T06:59:49.353Z,98821.83
2019-03-05T07:02:21.832Z,98811.87
2019-03-05T07:05:00.327Z,98833.20
2019-03-05T07:07:33.125Z,98843.20
2019-03-05T07:10:10.105Z,98835.37
2019-03-05T07:12:49.638Z,98845.80
2019-03-05T07:15:35.226Z,98842.77
2019-03-05T07:18:27.053Z,98843.64
2019-03-05T07:21:18.391Z,98852.76
2019-03-05T07:24:20.038Z,98858.00
2019-03-05T07:26:52.608Z,98878.81
2019-03-05T07:29:25.083Z,98872.30
2019-03-05T07:31:57.005Z,98878.82
2019-03-05T07:34:31.053Z,98866.21
2019-03-05T07:37:04.409Z,98883.56
2019-03-05T07:39:38.153Z,98891.81
2019-03-05T07:42:10.532Z,98882.69
2019-03-05T07:44:42.898Z,98866.59
2019-03-05T07:47:15.985Z,98875.27
2019-03-05T07:49:47.961Z,98872.64
2019-03-05T07:52:20.319Z,98889.11
2019-03-05T07:54:52.796Z,98879.95
2019-03-05T07:57:25.270Z,98891.72
2019-03-05T07:59:57.246Z,98884.72
2019-03-05T08:02:29.704Z,98879.52
2019-03-05T08:05:02.080Z,98886.47
2019-03-05T08:07:34.453Z,98896.48
2019-03-05T08:10:32.752Z,98900.41
2019-03-05T08:13:24.925Z,98894.74
2019-03-05T08:16:16.796Z,98900.86
2019-03-05T08:18:49.066Z,98910.88
2019-03-05T08:21:21.541Z,98897.92
2019-03-05T08:23:54.932Z,98903.58
2019-03-05T08:26:27.924Z,98913.19
2019-03-05T08:29:02.856Z,98898.39
2019-03-05T08:31:35.430Z,98899.69
2019-03-05T08:34:08.566Z,98923.61
2019-03-05T08:36:42.118Z,98927.98
2019-03-05T08:39:14.451Z,98939.28
2019-03-05T08:41:46.861Z,98930.59
2019-03-05T08:44:19.541Z,98932.31
2019-03-05T08:46:52.026Z,98948.81
2019-03-05T08:49:24.910Z,98954.05
2019-03-05T08:51:57.373Z,98958.44
2019-03-05T08:54:29.644Z,98948.02
2019-03-05T08:57:02.122Z,98957.69
2019-03-05T08:59:34.736Z,98957.78
2019-03-05T09:02:07.171Z,98956.11
2019-03-05T09:04:39.748Z,98974.13
2019-03-05T09:07:12.220Z,98954.13
2019-03-05T09:09:44.695Z,98959.83
2019-03-05T09:12:17.081Z,98956.36
2019-03-05T09:14:49.511Z,98966.81
2019-03-05T09:17:21.911Z,98977.28
2019-03-05T09:19:54.184Z,98979.05
2019-03-05T09:22:26.559Z,98966.93
2019-03-05T09:24:58.827Z,98976.48
2019-03-05T09:27:31.408Z,98973.81
2019-03-05T09:30:16.677Z,98985.16
2019-03-05T09:32:49.061Z,98980.02
2019-03-05T09:35:21.336Z,98992.66
2019-03-05T09:37:53.792Z,98991.34
2019-03-05T09:40:29.953Z,98998.33
2019-03-05T09:43:02.520Z,98995.70
2019-03-05T09:45:34.799Z,98997.03
2019-03-05T09:48:07.804Z,98995.30
2019-03-05T09:50:40.167Z,98995.25
2019-03-05T09:53:12.536Z,98993.95
2019-03-05T09:55:44.446Z,99003.58
2019-03-05T09:58:16.429Z,99019.28
2019-03-05T10:00:48.722Z,99013.59
2019-03-05T10:03:21.201Z,99019.27
2019-03-05T10:05:53.673Z,99023.19
2019-03-05T10:08:32.441Z,99029.72
2019-03-05T10:11:00.974Z,99039.30
2019-03-05T10:13:33.451Z,99047.13
2019-03-05T10:16:05.931Z,99035.35
2019-03-05T10:18:39.334Z,99044.98
2019-03-05T10:21:12.165Z,99041.94
2019-03-05T10:23:44.942Z,99050.22
2019-03-05T10:26:18.697Z,99057.63
2019-03-05T10:28:51.470Z,99055.02
2019-03-05T10:31:24.058Z,99050.23
2019-03-05T10:33:56.418Z,99061.55
2019-03-05T10:36:28.791Z,99058.92
2019-03-05T10:39:01.162Z,99044.98
2019-03-05T10:41:35.176Z,99070.30
2019-03-05T10:44:07.544Z,99053.28
2019-03-05T10:46:39.917Z,99053.28
2019-03-05T10:49:12.402Z,99073.33
2019-03-05T10:51:45.278Z,99068.97
2019-03-05T10:54:17.261Z,99068.95
2019-03-05T10:56:49.616Z,99071.57
2019-03-05T10:59:21.989Z,99072.44
2019-03-05T11:01:54.244Z,99085.05
2019-03-05T11:04:26.226Z,99072.88
2019-03-05T11:06:58.797Z,99062.87
2019-03-05T11:09:32.188Z,99080.73
2019-03-05T11:12:04.967Z,99073.77
2019-03-05T11:14:37.445Z,99065.93
2019-03-05T11:17:10.229Z,99060.67
2019-03-05T11:19:42.639Z,99067.65
2019-03-05T11:22:14.968Z,99071.87
2019-03-05T11:24:47.442Z,99057.43
2019-03-05T11:27:19.909Z,99088.12
2019-03-05T11:29:52.249Z,99050.59
2019-03-05T11:32:24.557Z,99058.02
2019-03-05T11:34:56.937Z,99050.59
2019-03-05T11:37:29.308Z,99078.44
2019-03-05T11:40:02.196Z,99084.52
2019-03-05T11:42:35.070Z,99066.80
2019-03-05T11:45:15.224Z,99066.31
2019-03-05T11:47:47.750Z,99085.88
2019-03-05T11:50:20.274Z,99079.02
2019-03-05T11:52:52.865Z,99077.30
2019-03-05T11:55:29.936Z,99075.67
2019-03-05T11:58:03.941Z,99094.56
2019-03-05T12:00:38.061Z,99106.41
2019-03-05T12:03:10.435Z,99092.77
2019-03-05T12:05:42.804Z,99103.67
2019-03-05T12:08:16.413Z,99086.00
2019-03-05T12:10:48.788Z,99089.67
2019-03-05T12:13:21.149Z,99084.45
2019-03-05T12:15:53.626Z,99101.58
2019-03-05T12:18:25.999Z,99102.47
2019-03-05T12:20:58.376Z,99094.14
2019-03-05T12:23:30.847Z,99108.14
2019-03-05T12:26:03.345Z,99088.53
2019-03-05T12:28:35.686Z,99107.33
2019-03-05T12:31:08.058Z,99103.44
2019-03-05T12:33:40.851Z,99106.50
2019-03-05T12:36:13.419Z,99116.98
2019-03-05T12:38:46.391Z,99122.66
2019-03-05T12:41:18.927Z,99154.94
2019-03-05T12:43:51.250Z,99199.13
2019-03-05T12:49:39.337Z,99216.27
2019-03-05T12:52:12.090Z,99218.67
2019-03-05T12:54:44.569Z,99221.17
2019-03-05T12:57:16.835Z,99206.73
2019-03-05T12:59:49.208Z,99226.66
2019-03-05T13:02:21.470Z,99198.88
2019-03-05T13:04:53.846Z,99241.03
2019-03-05T13:07:26.122Z,99232.70
2019-03-05T13:09:58.210Z,99229.58
2019-03-05T13:19:18.419Z,99238.30
2019-03-05T13:21:50.785Z,99216.73
2019-03-05T13:24:23.060Z,99211.17
2019-03-05T13:26:55.423Z,99207.52
2019-03-05T13:29:27.694Z,99210.38
2019-03-05T13:32:00.634Z,99213.72
2019-03-05T13:34:34.195Z,99213.08
2019-03-05T13:37:06.563Z,99221.03
2019-03-05T13:39:40.047Z,99222.84
2019-03-05T13:42:12.426Z,99225.67
2019-03-05T13:44:44.801Z,99227.58
2019-03-05T13:47:17.182Z,99234.22
2019-03-05T13:50:04.535Z,99229.16
2019-03-05T13:52:56.115Z,99233.09
2019-03-05T13:55:53.977Z,99231.73
2019-03-05T13:59:04.252Z,99228.75
2019-03-05T14:01:36.523Z,99220.43
2019-03-05T14:04:20.464Z,99225.23
2019-03-05T14:07:15.365Z,99233.77
2019-03-05T14:09:46.220Z,99231.73
2019-03-05T14:12:18.570Z,99232.06
2019-03-05T14:14:50.945Z,99231.50
2019-03-05T14:17:24.343Z,99241.02
2019-03-05T14:19:56.716Z,99243.14
2019-03-05T14:22:29.311Z,99243.17
2019-03-05T14:25:02.930Z,99236.16
2019-03-05T14:27:35.677Z,99240.98
2019-03-05T14:30:21.495Z,99235.86
2019-03-05T14:32:53.488Z,99237.19
2019-03-05T14:35:27.236Z,99235.08
2019-03-05T14:37:59.614Z,99239.43
2019-03-05T14:40:32.420Z,99233.92
2019-03-05T14:43:05.319Z,99240.97
2019-03-05T14:45:37.627Z,99249.71
2019-03-05T14:48:09.922Z,99246.66
2019-03-05T14:50:42.281Z,99246.28
2019-03-05T14:53:15.121Z,99255.05
2019-03-05T14:55:47.526Z,99253.68
2019-03-05T14:58:19.667Z,99245.80
2019-03-05T15:00:52.199Z,99251.03
2019-03-05T15:03:26.307Z,99248.42
2019-03-05T15:05:58.691Z,99256.31
2019-03-05T15:08:31.026Z,99253.84
2019-03-05T15:11:03.398Z,99250.02
2019-03-05T15:13:35.322Z,99251.17
2019-03-05T15:16:07.754Z,99253.98
2019-03-05T15:18:40.105Z,99243.03
2019-03-05T15:21:12.121Z,99243.86
2019-03-05T15:23:44.444Z,99236.93
2019-03-05T15:26:16.812Z,99231.42
2019-03-05T15:28:56.228Z,99229.41
2019-03-05T15:31:24.328Z,99239.98
2019-03-05T15:33:56.803Z,99237.47
2019-03-05T15:36:29.171Z,99247.92
2019-03-05T15:39:01.554Z,99256.59
2019-03-05T15:41:35.456Z,99264.78
2019-03-05T15:44:07.816Z,99270.75
2019-03-05T15:46:40.630Z,99261.98
2019-03-05T15:49:12.976Z,99269.78
2019-03-05T15:51:45.521Z,99273.23
2019-03-05T15:54:18.634Z,99272.73
2019-03-05T15:56:52.660Z,99280.54
2019-03-05T15:59:25.648Z,99270.91
2019-03-05T16:01:58.214Z,99269.10
2019-03-05T16:04:30.590Z,99277.74
2019-03-05T16:07:02.956Z,99279.45
2019-03-05T16:09:39.331Z,99284.59
2019-03-05T16:12:09.639Z,99284.14
2019-03-05T16:14:43.149Z,99288.36
2019-03-05T16:17:15.123Z,99301.39
2019-03-05T16:19:49.023Z,99307.92
2019-03-05T16:22:21.598Z,99314.38
2019-03-05T16:24:53.858Z,99325.64
2019-03-05T16:27:30.016Z,99314.91
2019-03-05T16:29:59.778Z,99330.37
2019-03-05T16:32:37.834Z,99334.54
2019-03-05T16:35:19.541Z,99338.69
2019-03-05T16:37:53.751Z,99345.82
2019-03-05T16:40:27.656Z,99351.67
2019-03-05T16:43:02.578Z,99360.53
2019-03-05T16:45:37.928Z,99369.90
2019-03-05T16:48:14.597Z,99376.61
2019-03-05T16:51:03.768Z,99388.97
2019-03-05T16:53:37.668Z,99387.84
2019-03-05T16:56:29.695Z,99392.77
2019-03-05T16:59:01.765Z,99405.77
2019-03-05T17:01:41.629Z,99414.77
2019-03-05T17:04:18.805Z,99415.91
2019-03-05T17:06:52.803Z,99425.72
2019-03-05T17:09:26.829Z,99429.48
2019-03-05T17:11:59.605Z,99429.68
2019-03-05T17:14:31.980Z,99449.03
2019-03-05T17:17:04.343Z,99452.37
2019-03-05T17:19:36.721Z,99457.11
2019-03-05T17:22:09.035Z,99459.20
2019-03-05T17:24:41.472Z,99449.56
2019-03-05T17:27:13.837Z,99458.20
2019-03-05T17:29:46.210Z,99463.45
2019-03-05T17:32:18.693Z,99470.36
2019-03-05T17:34:51.057Z,99475.49
2019-03-05T17:37:23.527Z,99478.56
2019-03-05T17:39:56.197Z,99473.85
2019-03-05T17:42:28.465Z,99481.23
2019-03-05T17:45:00.839Z,99498.09
2019-03-05T17:47:34.146Z,99492.47
2019-03-05T17:50:10.310Z,99495.07
2019-03-05T17:52:42.568Z,99489.84
2019-03-05T17:55:26.943Z,99495.47
2019-03-05T17:57:58.376Z,99491.09
2019-03-05T18:00:34.749Z,99488.42
2019-03-05T18:03:07.525Z,99494.09
2019-03-05T18:05:39.957Z,99488.42
2019-03-05T18:08:12.480Z,99497.09
2019-03-05T18:10:44.949Z,99482.39
2019-03-05T18:13:17.442Z,99497.52
2019-03-05T18:15:49.895Z,99495.34
2019-03-05T18:18:22.125Z,99502.33
2019-03-05T18:20:54.539Z,99507.53
2019-03-05T18:23:27.015Z,99512.30
2019-03-05T18:25:59.389Z,99517.91
2019-03-05T18:28:32.064Z,99514.42
2019-03-05T18:31:04.423Z,99526.54
2019-03-05T18:33:36.806Z,99527.33
2019-03-05T18:36:10.607Z,99529.45
2019-03-05T18:38:42.979Z,99537.23
2019-03-05T18:41:15.350Z,99540.19
2019-03-05T18:43:47.283Z,99552.28
2019-03-05T18:46:19.688Z,99548.86
2019-03-05T18:48:52.058Z,99558.34
2019-03-05T18:51:24.438Z,99569.58
2019-03-05T18:53:57.928Z,99570.41
2019-03-05T18:56:30.303Z,99578.20
2019-03-05T18:59:02.875Z,99580.80
2019-03-05T19:01:35.361Z,99587.38
2019-03-05T19:04:07.612Z,99589.67
2019-03-05T19:06:39.991Z,99599.42
2019-03-05T19:09:12.254Z,99593.47
2019-03-05T19:11:45.254Z,99619.50
2019-03-05T19:14:17.617Z,99615.16
2019-03-05T19:16:49.995Z,99621.11
2019-03-05T19:19:22.367Z,99623.19
2019-03-05T19:21:54.743Z,99623.47
2019-03-05T19:24:27.109Z,99621.31
2019-03-05T19:26:59.480Z,99618.19
2019-03-05T19:29:31.858Z,99619.96
2019-03-05T19:32:04.228Z,99625.98
2019-03-05T19:34:36.599Z,99631.14
2019-03-05T19:37:08.948Z,99631.14
2019-03-05T19:39:41.229Z,99628.89
2019-03-05T19:42:13.615Z,99639.59
2019-03-05T19:44:45.988Z,99643.80
2019-03-05T19:47:18.344Z,99644.13
2019-03-05T19:49:50.731Z,99643.63
2019-03-05T19:52:23.145Z,99654.09
2019-03-05T19:54:55.475Z,99651.43
2019-03-05T19:57:27.838Z,99656.10
2019-03-05T20:00:00.525Z,99656.93
2019-03-05T20:02:33.305Z,99665.14
2019-03-05T20:05:06.796Z,99663.73
2019-03-05T20:07:39.685Z,99664.05
2019-03-05T20:10:25.167Z,99672.64
2019-03-05T20:13:14.731Z,99673.35
2019-03-05T20:15:47.054Z,99680.47
2019-03-05T20:18:19.425Z,99685.56
2019-03-05T20:20:51.692Z,99695.93
2019-03-05T20:23:23.689Z,99691.53
2019-03-05T20:25:56.033Z,99712.59
2019-03-05T20:28:28.407Z,99707.66
2019-03-05T20:31:00.775Z,99714.79
2019-03-05T20:33:32.854Z,99718.80
2019-03-05T20:36:05.260Z,99717.38
2019-03-05T20:38:37.674Z,99721.90
2019-03-05T20:41:10.053Z,99724.84
2019-03-05T20:43:42.038Z,99734.65
2019-03-05T20:46:19.301Z,99746.88
2019-03-05T20:48:51.678Z,99746.77
2019-03-05T20:51:24.156Z,99760.47
2019-03-05T20:53:57.136Z,99763.16
2019-03-05T20:56:29.507Z,99764.56
2019-03-05T20:59:01.873Z,99776.83
2019-03-05T21:01:34.451Z,99783.83
2019-03-05T21:04:07.230Z,99788.61
2019-03-05T21:06:42.327Z,99780.72
2019-03-05T21:09:23.239Z,99781.44
2019-03-05T21:11:55.930Z,99786.41
2019-03-05T21:14:28.289Z,99789.80
2019-03-05T21:17:00.669Z,99797.64
2019-03-05T21:19:33.381Z,99791.60
2019-03-05T21:22:06.851Z,99805.09
2019-03-05T21:24:39.224Z,99811.23
2019-03-05T21:27:11.516Z,99814.24
2019-03-05T21:29:43.909Z,99815.58
2019-03-05T21:32:16.229Z,99817.49
2019-03-05T21:34:48.609Z,99825.11
2019-03-05T21:37:20.874Z,99828.66
2019-03-05T21:39:53.241Z,99842.77
2019-03-05T21:42:25.933Z,99854.45
2019-03-05T21:44:58.401Z,99863.44
2019-03-05T21:47:31.081Z,99865.14
2019-03-05T21:50:06.362Z,99859.88
2019-03-05T21:52:39.824Z,99870.81
2019-03-05T21:55:15.394Z,99866.75
2019-03-05T21:57:47.742Z,99872.56
2019-03-05T22:00:24.547Z,99877.08
2019-03-05T22:02:59.337Z,99889.95
2019-03-05T22:05:32.945Z,99888.66
2019-03-05T22:08:05.301Z,99881.55
2019-03-05T22:10:37.989Z,99889.34
2019-03-05T22:13:11.889Z,99900.55
2019-03-05T22:15:44.570Z,99903.30
2019-03-05T22:18:16.837Z,99906.61
2019-03-05T22:20:49.027Z,99911.36
2019-03-05T22:23:21.390Z,99911.46
2019-03-05T22:25:53.759Z,99912.17
2019-03-05T22:28:26.128Z,99913.03
2019-03-05T22:30:58.907Z,99915.95
2019-03-05T22:33:31.271Z,99922.71
2019-03-05T22:36:04.787Z,99924.59
2019-03-05T22:38:37.154Z,99926.98
2019-03-05T22:41:10.360Z,99929.31
2019-03-05T22:43:42.703Z,99934.39
2019-03-05T22:46:15.087Z,99945.66
2019-03-05T22:48:47.006Z,99947.80
2019-03-05T22:51:19.524Z,99955.59
2019-03-05T22:53:52.749Z,99946.18
2019-03-05T22:56:25.179Z,99960.42
2019-03-05T22:58:57.458Z,99958.01
2019-03-05T23:01:34.026Z,99962.83
2019-03-05T23:04:06.711Z,99967.58
2019-03-05T23:06:39.087Z,99967.80
2019-03-05T23:09:13.504Z,99977.13
2019-03-05T23:11:46.487Z,99975.58
2019-03-05T23:14:18.737Z,99980.69
2019-03-05T23:16:52.668Z,99987.52
2019-03-05T23:19:25.343Z,99991.29
2019-03-05T23:21:57.715Z,99992.84
2019-03-05T23:24:30.089Z,99992.16
2019-03-05T23:27:02.517Z,99994.64
2019-03-05T23:29:37.076Z,99995.33
2019-03-05T23:32:09.455Z,99998.06
2019-03-05T23:34:42.575Z,99994.41
2019-03-05T23:37:15.021Z,99999.56
2019-03-05T23:39:47.604Z,100005.44
2019-03-05T23:42:19.958Z,100005.27
2019-03-05T23:44:52.240Z,100009.09
2019-03-05T23:47:24.607Z,100020.11
2019-03-05T23:49:57.186Z,100018.77
2019-03-05T23:52:29.554Z,100022.81
2019-03-05T23:55:01.933Z,100028.48
2019-03-05T23:57:34.293Z,100028.72
